createdAt,value
2018-03-14T00:01:20.071Z,67.30
2018-03-14T00:03:47.563Z,67.30
2018-03-14T00:06:15.141Z,67.40
2018-03-14T00:08:43.370Z,67.50
2018-03-14T00:11:10.843Z,67.50
2018-03-14T00:13:38.307Z,67.30
2018-03-14T00:16:05.789Z,67.30
2018-03-14T00:18:33.262Z,67.20
2018-03-14T00:21:00.736Z,67.20
2018-03-14T00:23:28.189Z,67.20
2018-03-14T00:25:55.675Z,67.30
2018-03-14T00:28:23.144Z,67.40
2018-03-14T00:30:51.328Z,67.30
2018-03-14T00:33:18.852Z,67.20
2018-03-14T00:35:46.346Z,66.90
2018-03-14T00:38:14.595Z,67.30
2018-03-14T00:40:42.075Z,67.30
2018-03-14T00:43:09.540Z,67.30
2018-03-14T00:45:37.040Z,67.50
2018-03-14T00:48:04.505Z,67.30
2018-03-14T00:50:31.978Z,67.30
2018-03-14T00:52:59.459Z,67.50
2018-03-14T00:55:26.936Z,67.50
2018-03-14T00:57:54.421Z,67.60
2018-03-14T01:00:21.883Z,67.70
2018-03-14T01:02:49.387Z,67.80
2018-03-14T01:05:17.672Z,67.50
2018-03-14T01:07:45.154Z,67.50
2018-03-14T01:10:12.645Z,67.70
2018-03-14T01:12:40.120Z,67.90
2018-03-14T01:15:07.608Z,67.60
2018-03-14T01:17:35.130Z,67.80
2018-03-14T01:20:02.599Z,67.70
2018-03-14T01:22:30.060Z,67.90
2018-03-14T01:24:57.529Z,68.10
2018-03-14T01:27:25.004Z,68.10
2018-03-14T01:29:52.478Z,67.90
2018-03-14T01:32:19.944Z,67.90
2018-03-14T01:34:47.419Z,68.10
2018-03-14T01:37:14.879Z,68.40
2018-03-14T01:39:42.351Z,68.20
2018-03-14T01:42:09.808Z,68.30
2018-03-14T01:44:37.279Z,68.40
2018-03-14T01:47:04.734Z,68.40
2018-03-14T01:49:32.216Z,68.20
2018-03-14T01:51:59.679Z,68.40
2018-03-14T01:54:27.164Z,68.40
2018-03-14T01:56:54.622Z,68.10
2018-03-14T01:59:22.086Z,68.30
2018-03-14T02:01:50.363Z,68.50
2018-03-14T02:04:17.846Z,68.60
2018-03-14T02:06:45.330Z,68.50
2018-03-14T02:09:12.797Z,68.40
2018-03-14T02:11:40.290Z,68.70
2018-03-14T02:14:07.807Z,68.60
2018-03-14T02:16:35.276Z,68.60
2018-03-14T02:19:02.744Z,68.60
2018-03-14T02:21:30.267Z,68.50
2018-03-14T02:23:57.749Z,68.30
2018-03-14T02:26:25.226Z,68.10
2018-03-14T02:28:52.688Z,68.10
2018-03-14T02:31:20.150Z,67.90
2018-03-14T02:33:48.401Z,68.00
2018-03-14T02:36:27.516Z,68.60
2018-03-14T02:38:54.992Z,68.00
2018-03-14T02:41:22.452Z,67.90
2018-03-14T02:43:49.935Z,67.80
2018-03-14T02:46:17.405Z,67.80
2018-03-14T02:48:44.855Z,67.80
2018-03-14T02:51:12.303Z,67.90
2018-03-14T02:53:39.766Z,67.90
2018-03-14T02:56:07.219Z,68.00
2018-03-14T02:58:34.716Z,68.10
2018-03-14T03:01:02.171Z,68.10
2018-03-14T03:03:30.415Z,67.90
2018-03-14T03:05:57.863Z,67.90
2018-03-14T03:08:25.311Z,67.90
2018-03-14T03:10:52.775Z,67.50
2018-03-14T03:13:20.227Z,67.60
2018-03-14T03:15:47.690Z,67.80
2018-03-14T03:18:15.147Z,67.80
2018-03-14T03:20:42.616Z,67.70
2018-03-14T03:23:10.072Z,67.80
2018-03-14T03:25:37.548Z,67.70
2018-03-14T03:28:05.794Z,68.30
2018-03-14T03:30:33.306Z,67.60
2018-03-14T03:33:00.787Z,67.60
2018-03-14T03:35:28.261Z,67.60
2018-03-14T03:37:55.718Z,67.60
2018-03-14T03:40:23.173Z,67.40
2018-03-14T03:42:50.632Z,67.40
2018-03-14T03:45:18.079Z,67.40
2018-03-14T03:47:45.546Z,67.40
2018-03-14T03:50:13.042Z,67.10
2018-03-14T03:52:40.533Z,67.20
2018-03-14T03:55:07.988Z,67.20
2018-03-14T03:57:35.447Z,66.90
2018-03-14T04:00:02.904Z,66.80
2018-03-14T04:02:30.381Z,66.80
2018-03-14T04:04:57.835Z,66.80
2018-03-14T04:07:25.287Z,66.90
2018-03-14T04:09:52.751Z,66.90
2018-03-14T04:12:20.228Z,66.90
2018-03-14T04:14:47.687Z,66.90
2018-03-14T04:17:15.137Z,66.80
2018-03-14T04:19:42.603Z,66.80
2018-03-14T04:22:10.056Z,66.90
2018-03-14T04:24:37.507Z,66.70
2018-03-14T04:27:04.962Z,66.80
2018-03-14T04:29:32.510Z,66.80
2018-03-14T04:31:59.971Z,66.80
2018-03-14T04:34:27.423Z,66.80
2018-03-14T04:36:54.879Z,66.70
2018-03-14T04:39:22.339Z,66.90
2018-03-14T04:41:49.878Z,66.90
2018-03-14T04:44:17.346Z,66.90
2018-03-14T04:46:44.786Z,66.90
2018-03-14T04:49:12.259Z,67.00
2018-03-14T04:51:39.723Z,67.10
2018-03-14T04:54:07.182Z,67.20
2018-03-14T04:56:34.652Z,67.00
2018-03-14T04:59:02.094Z,67.10
2018-03-14T05:01:29.554Z,67.30
2018-03-14T05:03:57.020Z,67.30
2018-03-14T05:06:24.479Z,67.30
2018-03-14T05:08:51.959Z,67.20
2018-03-14T05:11:20.187Z,67.20
2018-03-14T05:13:47.643Z,67.10
2018-03-14T05:16:15.871Z,67.20
2018-03-14T05:18:44.098Z,67.20
2018-03-14T05:21:11.632Z,67.20
2018-03-14T05:23:39.099Z,67.00
2018-03-14T05:26:06.570Z,67.10
2018-03-14T05:28:34.027Z,67.20
2018-03-14T05:31:01.515Z,67.20
2018-03-14T05:33:28.970Z,67.80
2018-03-14T05:35:56.415Z,66.90
2018-03-14T05:38:23.878Z,67.20
2018-03-14T05:40:51.327Z,67.30
2018-03-14T05:43:18.795Z,67.30
2018-03-14T05:45:46.255Z,67.30
2018-03-14T05:48:14.487Z,67.90
2018-03-14T05:50:41.943Z,67.20
2018-03-14T05:53:09.427Z,67.10
2018-03-14T05:55:36.883Z,67.00
2018-03-14T05:58:04.368Z,67.10
2018-03-14T06:00:31.823Z,67.10
2018-03-14T06:02:59.299Z,66.90
2018-03-14T06:05:26.757Z,66.80
2018-03-14T06:07:54.229Z,66.80
2018-03-14T06:10:21.690Z,66.70
2018-03-14T06:12:49.208Z,66.60
2018-03-14T06:15:17.427Z,66.80
2018-03-14T06:17:44.910Z,66.80
2018-03-14T06:20:12.366Z,66.80
2018-03-14T06:22:39.876Z,66.80
2018-03-14T06:25:07.329Z,66.70
2018-03-14T06:27:34.784Z,66.70
2018-03-14T06:30:02.324Z,66.70
2018-03-14T06:32:30.543Z,66.50
2018-03-14T06:34:58.059Z,66.50
2018-03-14T06:37:25.514Z,66.40
2018-03-14T06:39:52.978Z,66.40
2018-03-14T06:42:20.438Z,66.30
2018-03-14T06:44:47.897Z,66.30
2018-03-14T06:47:15.351Z,66.30
2018-03-14T06:49:42.829Z,66.20
2018-03-14T06:52:10.304Z,66.20
2018-03-14T06:54:37.768Z,66.00
2018-03-14T06:57:05.221Z,66.10
2018-03-14T06:59:44.291Z,66.20
2018-03-14T07:02:23.521Z,66.10
2018-03-14T07:05:02.772Z,66.00
2018-03-14T07:07:30.223Z,65.90
2018-03-14T07:09:57.691Z,65.70
2018-03-14T07:12:25.143Z,65.70
2018-03-14T07:14:52.603Z,65.70
2018-03-14T07:17:20.067Z,65.60
2018-03-14T07:19:47.529Z,65.50
2018-03-14T07:22:14.999Z,65.20
2018-03-14T07:24:42.451Z,65.20
2018-03-14T07:27:09.911Z,65.30
2018-03-14T07:29:37.368Z,65.40
2018-03-14T07:32:04.839Z,65.20
2018-03-14T07:34:32.307Z,65.20
2018-03-14T07:37:00.154Z,65.30
2018-03-14T07:39:27.603Z,65.30
2018-03-14T07:41:55.070Z,65.30
2018-03-14T07:44:22.520Z,65.30
2018-03-14T07:46:49.983Z,65.20
2018-03-14T07:49:17.440Z,65.20
2018-03-14T07:51:44.916Z,65.20
2018-03-14T07:54:12.373Z,65.10
2018-03-14T07:56:39.832Z,65.10
2018-03-14T07:59:08.244Z,65.00
2018-03-14T08:01:36.541Z,65.00
2018-03-14T08:04:04.008Z,65.00
2018-03-14T08:06:31.483Z,64.90
2018-03-14T08:08:58.967Z,64.70
2018-03-14T08:11:26.433Z,64.70
2018-03-14T08:13:54.036Z,64.70
2018-03-14T08:16:22.150Z,64.50
2018-03-14T08:18:49.643Z,64.40
2018-03-14T08:21:17.100Z,64.30
2018-03-14T08:23:44.572Z,64.40
2018-03-14T08:26:12.028Z,64.20
2018-03-14T08:28:39.503Z,64.20
2018-03-14T08:31:06.967Z,64.10
2018-03-14T08:33:34.455Z,64.00
2018-03-14T08:36:01.983Z,64.00
2018-03-14T08:38:29.447Z,63.90
2018-03-14T08:40:56.915Z,63.90
2018-03-14T08:43:24.391Z,63.70
2018-03-14T08:45:51.851Z,63.70
2018-03-14T08:48:19.338Z,63.70
2018-03-14T08:50:46.834Z,63.60
2018-03-14T08:53:14.306Z,63.50
2018-03-14T08:55:41.784Z,63.50
2018-03-14T08:58:09.269Z,63.40
2018-03-14T09:00:36.738Z,63.50
2018-03-14T09:03:04.207Z,63.30
2018-03-14T09:05:31.692Z,63.30
2018-03-14T09:07:59.167Z,63.30
2018-03-14T09:10:26.637Z,63.20
2018-03-14T09:12:54.863Z,62.90
2018-03-14T09:15:22.344Z,62.90
2018-03-14T09:17:49.817Z,62.80
2018-03-14T09:20:17.310Z,62.70
2018-03-14T09:22:44.788Z,62.70
2018-03-14T09:25:12.252Z,62.60
2018-03-14T09:27:39.722Z,62.50
2018-03-14T09:30:07.178Z,62.40
2018-03-14T09:32:34.649Z,62.30
2018-03-14T09:35:02.106Z,62.10
2018-03-14T09:37:29.579Z,61.80
2018-03-14T09:39:57.824Z,61.20
2018-03-14T09:42:25.304Z,61.10
2018-03-14T09:44:52.767Z,61.50
2018-03-14T09:47:20.263Z,60.60
2018-03-14T09:49:47.747Z,60.30
2018-03-14T09:52:15.223Z,60.10
2018-03-14T09:54:42.691Z,59.80
2018-03-14T09:57:10.191Z,59.50
2018-03-14T09:59:38.407Z,59.30
2018-03-14T10:02:05.867Z,59.20
2018-03-14T10:04:33.344Z,59.80
2018-03-14T10:07:00.864Z,59.10
2018-03-14T10:09:28.356Z,58.90
2018-03-14T10:11:56.592Z,58.70
2018-03-14T10:14:24.068Z,58.70
2018-03-14T10:16:51.550Z,58.60
2018-03-14T10:19:19.053Z,58.40
2018-03-14T10:21:46.509Z,58.30
2018-03-14T10:24:13.977Z,57.40
2018-03-14T10:26:41.450Z,57.40
2018-03-14T10:29:08.975Z,57.20
2018-03-14T10:31:36.412Z,57.10
2018-03-14T10:34:03.876Z,57.10
2018-03-14T10:36:31.352Z,56.90
2018-03-14T10:38:58.845Z,56.80
2018-03-14T10:41:26.328Z,57.30
2018-03-14T10:43:53.780Z,56.70
2018-03-14T10:46:21.254Z,56.70
2018-03-14T10:48:48.728Z,56.80
2018-03-14T10:51:16.207Z,56.70
2018-03-14T10:53:43.710Z,56.70
2018-03-14T10:56:11.224Z,57.50
2018-03-14T10:58:38.725Z,57.60
2018-03-14T11:01:10.128Z,57.40
2018-03-14T11:03:43.131Z,57.30
2018-03-14T11:06:10.612Z,57.20
2018-03-14T11:08:38.067Z,57.30
2018-03-14T11:11:05.540Z,57.10
2018-03-14T11:13:33.014Z,56.10
2018-03-14T11:16:00.472Z,55.60
2018-03-14T11:18:27.956Z,55.60
2018-03-14T11:20:55.428Z,55.50
2018-03-14T11:23:22.944Z,55.40
2018-03-14T11:25:50.422Z,55.30
2018-03-14T11:28:17.927Z,55.00
2018-03-14T11:30:45.392Z,55.00
2018-03-14T11:33:12.894Z,54.70
2018-03-14T11:35:40.355Z,54.60
2018-03-14T11:38:07.870Z,54.30
2018-03-14T11:40:36.102Z,54.30
2018-03-14T11:43:03.581Z,54.30
2018-03-14T11:45:31.084Z,54.20
2018-03-14T11:47:58.553Z,54.10
2018-03-14T11:50:26.030Z,54.10
2018-03-14T11:52:53.495Z,54.10
2018-03-14T11:55:20.985Z,54.00
2018-03-14T11:57:49.227Z,54.10
2018-03-14T12:00:16.703Z,54.10
2018-03-14T12:02:44.175Z,54.10
2018-03-14T12:05:11.651Z,54.10
2018-03-14T12:07:39.117Z,54.00
2018-03-14T12:10:06.629Z,53.90
2018-03-14T12:12:34.071Z,53.60
2018-03-14T12:15:01.600Z,54.00
2018-03-14T12:17:29.075Z,53.20
2018-03-14T12:19:56.563Z,52.90
2018-03-14T12:22:29.594Z,52.80
2018-03-14T12:24:57.087Z,52.50
2018-03-14T12:27:24.559Z,52.60
2018-03-14T12:29:52.064Z,52.40
2018-03-14T12:32:19.506Z,52.10
2018-03-14T12:34:47.126Z,51.80
2018-03-14T12:37:14.568Z,51.60
2018-03-14T12:39:42.044Z,51.40
2018-03-14T12:42:09.513Z,51.30
2018-03-14T12:44:37.007Z,51.00
2018-03-14T12:47:04.483Z,50.70
2018-03-14T12:49:31.953Z,50.30
2018-03-14T12:51:59.426Z,49.90
2018-03-14T12:54:26.908Z,49.60
2018-03-14T12:56:54.385Z,49.40
2018-03-14T12:59:21.839Z,49.30
2018-03-14T13:01:49.339Z,49.30
2018-03-14T13:04:16.819Z,49.20
2018-03-14T13:06:44.339Z,49.00
2018-03-14T13:09:11.768Z,48.80
2018-03-14T13:11:40.033Z,48.20
2018-03-14T13:14:07.517Z,48.20
2018-03-14T13:16:34.982Z,47.80
2018-03-14T13:19:02.465Z,47.80
2018-03-14T13:21:29.971Z,47.70
2018-03-14T13:23:58.213Z,47.60
2018-03-14T13:26:25.680Z,47.60
2018-03-14T13:28:53.221Z,47.40
2018-03-14T13:31:20.704Z,47.20
2018-03-14T13:33:48.185Z,47.20
2018-03-14T13:36:15.655Z,47.10
2018-03-14T13:38:43.120Z,47.20
2018-03-14T13:41:11.432Z,47.10
2018-03-14T13:43:38.900Z,47.10
2018-03-14T13:46:06.370Z,47.20
2018-03-14T13:48:34.638Z,47.30
2018-03-14T13:51:02.136Z,47.20
2018-03-14T13:53:29.619Z,47.20
2018-03-14T13:55:57.140Z,47.20
2018-03-14T13:58:24.677Z,47.10
2018-03-14T14:00:52.129Z,46.90
2018-03-14T14:03:19.653Z,46.70
2018-03-14T14:05:47.136Z,46.60
2018-03-14T14:08:14.620Z,46.50
2018-03-14T14:10:42.115Z,46.40
2018-03-14T14:13:09.677Z,46.20
2018-03-14T14:15:37.153Z,46.10
2018-03-14T14:18:04.622Z,46.00
2018-03-14T14:20:32.079Z,45.90
2018-03-14T14:22:59.599Z,45.90
2018-03-14T14:25:27.068Z,45.80
2018-03-14T14:27:54.548Z,45.90
2018-03-14T14:30:22.010Z,45.80
2018-03-14T14:32:49.486Z,45.80
2018-03-14T14:35:16.951Z,45.90
2018-03-14T14:37:45.200Z,46.00
2018-03-14T14:40:12.663Z,46.00
2018-03-14T14:42:40.123Z,45.90
2018-03-14T14:45:07.580Z,45.90
2018-03-14T14:47:35.109Z,45.80
2018-03-14T14:50:03.358Z,45.70
2018-03-14T14:52:30.817Z,45.70
2018-03-14T14:54:58.322Z,45.70
2018-03-14T14:57:25.775Z,45.50
2018-03-14T14:59:53.243Z,45.40
2018-03-14T15:02:20.704Z,45.40
2018-03-14T15:04:48.175Z,45.40
2018-03-14T15:07:16.441Z,45.60
2018-03-14T15:09:43.918Z,45.60
2018-03-14T15:12:11.393Z,45.60
2018-03-14T15:14:38.868Z,45.70
2018-03-14T15:17:06.334Z,45.70
2018-03-14T15:19:33.801Z,45.70
2018-03-14T15:22:01.265Z,45.60
2018-03-14T15:24:28.747Z,45.60
2018-03-14T15:26:56.211Z,45.60
2018-03-14T15:29:23.696Z,45.70
2018-03-14T15:31:51.167Z,45.80
2018-03-14T15:34:18.628Z,45.80
2018-03-14T15:36:46.102Z,45.60
2018-03-14T15:39:13.576Z,45.50
2018-03-14T15:41:41.042Z,45.50
2018-03-14T15:44:08.501Z,45.50
2018-03-14T15:46:35.976Z,45.50
2018-03-14T15:49:03.451Z,45.50
2018-03-14T15:51:30.918Z,45.60
2018-03-14T15:53:58.397Z,46.00
2018-03-14T15:56:25.880Z,45.30
2018-03-14T15:58:53.345Z,45.30
2018-03-14T16:01:21.832Z,45.60
2018-03-14T16:03:49.291Z,45.60
2018-03-14T16:06:16.766Z,45.90
2018-03-14T16:08:44.234Z,46.10
2018-03-14T16:11:11.741Z,46.40
2018-03-14T16:13:39.214Z,46.50
2018-03-14T16:16:06.671Z,46.80
2018-03-14T16:18:34.143Z,47.10
2018-03-14T16:21:01.610Z,47.00
2018-03-14T16:23:29.113Z,47.20
2018-03-14T16:25:56.579Z,47.30
2018-03-14T16:28:24.097Z,47.30
2018-03-14T16:30:51.555Z,47.40
2018-03-14T16:33:19.045Z,47.40
2018-03-14T16:35:46.507Z,47.50
2018-03-14T16:38:13.993Z,47.60
2018-03-14T16:40:41.453Z,47.70
2018-03-14T16:43:08.931Z,47.80
2018-03-14T16:45:36.399Z,47.90
2018-03-14T16:48:03.879Z,48.00
2018-03-14T16:50:31.414Z,48.10
2018-03-14T16:52:58.871Z,48.20
2018-03-14T16:55:26.348Z,48.20
2018-03-14T16:57:53.814Z,48.40
2018-03-14T17:00:21.280Z,48.30
2018-03-14T17:02:48.744Z,48.40
2018-03-14T17:05:16.236Z,48.50
2018-03-14T17:07:43.703Z,48.50
2018-03-14T17:10:11.233Z,48.70
2018-03-14T17:12:38.656Z,48.70
2018-03-14T17:15:06.119Z,49.00
2018-03-14T17:17:33.588Z,49.10
2018-03-14T17:20:01.063Z,49.40
2018-03-14T17:22:28.533Z,49.70
2018-03-14T17:24:56.016Z,50.20
2018-03-14T17:27:23.665Z,50.60
2018-03-14T17:29:51.151Z,51.00
2018-03-14T17:32:18.626Z,52.20
2018-03-14T17:34:46.087Z,52.50
2018-03-14T17:37:13.604Z,52.80
2018-03-14T17:39:41.079Z,53.10
2018-03-14T17:42:08.571Z,53.30
2018-03-14T17:44:36.031Z,53.40
2018-03-14T17:47:03.505Z,53.50
2018-03-14T17:49:30.962Z,53.60
2018-03-14T17:51:58.431Z,53.70
2018-03-14T17:54:25.900Z,53.80
2018-03-14T17:56:53.380Z,53.90
2018-03-14T17:59:20.911Z,54.10
2018-03-14T18:01:48.380Z,54.20
2018-03-14T18:04:15.879Z,54.30
2018-03-14T18:06:43.371Z,54.40
2018-03-14T18:09:10.840Z,54.50
2018-03-14T18:11:38.338Z,54.70
2018-03-14T18:14:05.875Z,54.70
2018-03-14T18:16:33.345Z,54.80
2018-03-14T18:19:00.815Z,55.00
2018-03-14T18:21:28.315Z,55.00
2018-03-14T18:23:55.785Z,55.10
2018-03-14T18:26:23.255Z,55.20
2018-03-14T18:28:50.743Z,55.30
2018-03-14T18:31:18.212Z,55.50
2018-03-14T18:33:45.679Z,55.60
2018-03-14T18:36:13.144Z,55.70
2018-03-14T18:38:41.404Z,56.00
2018-03-14T18:41:08.913Z,56.00
2018-03-14T18:43:36.382Z,56.80
2018-03-14T18:46:03.847Z,56.20
2018-03-14T18:48:31.339Z,56.30
2018-03-14T18:50:58.816Z,56.40
2018-03-14T18:53:26.296Z,56.50
2018-03-14T18:55:53.773Z,56.60
2018-03-14T18:58:21.259Z,56.70
2018-03-14T19:00:48.786Z,56.80
2018-03-14T19:03:16.220Z,56.80
2018-03-14T19:05:43.691Z,56.80
2018-03-14T19:08:11.195Z,56.90
2018-03-14T19:10:38.684Z,56.80
2018-03-14T19:13:06.164Z,57.50
2018-03-14T19:15:33.667Z,57.10
2018-03-14T19:18:01.139Z,57.10
2018-03-14T19:20:28.605Z,57.10
2018-03-14T19:22:56.074Z,57.30
2018-03-14T19:25:23.547Z,57.50
2018-03-14T19:27:51.023Z,58.10
2018-03-14T19:30:18.489Z,57.70
2018-03-14T19:32:45.965Z,57.80
2018-03-14T19:35:13.440Z,57.80
2018-03-14T19:37:40.895Z,57.90
2018-03-14T19:40:08.383Z,58.10
2018-03-14T19:42:35.863Z,58.20
2018-03-14T19:45:03.367Z,58.40
2018-03-14T19:47:31.624Z,58.50
2018-03-14T19:49:59.111Z,58.40
2018-03-14T19:52:26.611Z,58.50
2018-03-14T19:54:54.071Z,58.90
2018-03-14T19:57:21.556Z,58.80
2018-03-14T19:59:49.016Z,59.10
2018-03-14T20:02:16.491Z,59.30
2018-03-14T20:04:44.728Z,59.70
2018-03-14T20:07:12.269Z,59.70
2018-03-14T20:09:39.706Z,59.80
2018-03-14T20:12:07.194Z,60.00
2018-03-14T20:14:34.656Z,60.20
2018-03-14T20:17:02.144Z,60.50
2018-03-14T20:19:30.375Z,60.40
2018-03-14T20:21:57.843Z,60.40
2018-03-14T20:24:25.323Z,60.50
2018-03-14T20:26:52.810Z,60.50
2018-03-14T20:29:20.384Z,60.60
2018-03-14T20:31:47.859Z,60.70
2018-03-14T20:34:15.331Z,60.80
2018-03-14T20:36:42.791Z,60.90
2018-03-14T20:39:10.274Z,61.00
2018-03-14T20:41:37.755Z,61.10
2018-03-14T20:44:05.250Z,61.10
2018-03-14T20:46:32.706Z,61.10
2018-03-14T20:49:00.183Z,61.20
2018-03-14T20:51:27.659Z,61.20
2018-03-14T20:53:55.136Z,61.20
2018-03-14T20:56:22.604Z,61.10
2018-03-14T20:58:50.080Z,61.30
2018-03-14T21:01:17.548Z,61.40
2018-03-14T21:03:45.023Z,61.60
2018-03-14T21:06:12.489Z,61.60
2018-03-14T21:08:39.950Z,61.70
2018-03-14T21:11:07.419Z,61.80
2018-03-14T21:13:35.669Z,62.00
2018-03-14T21:16:04.904Z,62.00
2018-03-14T21:18:32.382Z,62.00
2018-03-14T21:20:59.852Z,62.10
2018-03-14T21:23:27.336Z,62.00
2018-03-14T21:25:54.843Z,62.00
2018-03-14T21:28:22.285Z,62.10
2018-03-14T21:30:49.789Z,62.40
2018-03-14T21:33:17.254Z,62.40
2018-03-14T21:35:44.739Z,62.40
2018-03-14T21:38:12.984Z,62.70
2018-03-14T21:40:40.459Z,62.60
2018-03-14T21:43:07.923Z,62.70
2018-03-14T21:45:35.394Z,62.70
2018-03-14T21:48:02.857Z,62.60
2018-03-14T21:50:30.323Z,62.70
2018-03-14T21:52:57.849Z,62.80
2018-03-14T21:55:40.833Z,63.00
2018-03-14T21:58:08.303Z,63.10
2018-03-14T22:00:35.783Z,63.00
2018-03-14T22:03:03.243Z,62.70
2018-03-14T22:05:30.719Z,62.90
2018-03-14T22:07:58.245Z,63.10
2018-03-14T22:10:25.655Z,63.30
2018-03-14T22:12:53.140Z,63.30
2018-03-14T22:15:20.603Z,63.50
2018-03-14T22:17:48.089Z,63.40
2018-03-14T22:20:15.540Z,63.60
2018-03-14T22:22:43.011Z,63.60
2018-03-14T22:25:10.466Z,63.60
2018-03-14T22:27:37.957Z,63.70
2018-03-14T22:30:05.410Z,64.50
2018-03-14T22:32:32.891Z,63.70
2018-03-14T22:35:01.119Z,63.70
2018-03-14T22:37:28.611Z,63.70
2018-03-14T22:39:56.087Z,63.80
2018-03-14T22:42:23.548Z,63.90
2018-03-14T22:44:51.020Z,64.00
2018-03-14T22:47:18.480Z,64.00
2018-03-14T22:49:45.968Z,63.90
2018-03-14T22:52:14.206Z,64.00
2018-03-14T22:54:41.681Z,64.10
2018-03-14T22:57:09.152Z,64.20
2018-03-14T22:59:36.632Z,64.20
2018-03-14T23:02:04.091Z,64.20
2018-03-14T23:04:31.563Z,64.30
2018-03-14T23:06:59.030Z,64.30
2018-03-14T23:09:26.511Z,64.40
2018-03-14T23:11:53.966Z,64.40
2018-03-14T23:14:21.450Z,64.60
2018-03-14T23:16:48.908Z,64.50
2018-03-14T23:19:17.138Z,65.30
2018-03-14T23:21:44.599Z,64.80
2018-03-14T23:24:12.831Z,64.60
2018-03-14T23:26:41.063Z,64.70
2018-03-14T23:29:09.291Z,64.60
2018-03-14T23:31:36.757Z,64.60
2018-03-14T23:34:04.217Z,64.90
2018-03-14T23:36:31.687Z,65.00
2018-03-14T23:38:59.166Z,65.10
2018-03-14T23:41:26.626Z,65.00
2018-03-14T23:43:54.144Z,64.90
2018-03-14T23:46:21.614Z,64.80
2018-03-14T23:48:49.072Z,64.70
2018-03-14T23:51:16.549Z,64.70
2018-03-14T23:53:44.011Z,64.80
2018-03-14T23:56:11.467Z,64.70
2018-03-14T23:58:38.936Z,64.70
